Latest Weather Observations for Maningrida Airport

IDD60801

Issued at 10:01 am CST Friday 27 February 2015 (issued every 30 minutes, with the page automatically refreshed every 10 minutes)

About weather observations | Map of weather stations | Latest weather observations for NT | Other Formats
Station Details ID: 014405 Name: MANINGRIDA AIRPORT Lat: -12.06 Lon: 134.23 Height: 28.1 m
Data from the previous 72 hours. | See also: Recent months at Maningrida Airport
Date/Time
CST
Temp
°C
App
Temp
°C
Dew
Point
Rel
Hum
%
Delta-T
°C
Wind Press
QNH
hPa
Press
MSL
hPa
Rain
since 9 am
mm
Dir
 
Spd
km/h
Gust
km/h
Spd
kts
Gust
kts
27/10:00am 29.3 35.5 26.3 84 2.1 W 6 7 3 4 1007.7 1007.5 0.0
27/09:30am 28.3 33.4 25.5 85 2.0 WSW 9 15 5 8 1007.6 1007.4 0.0
27/09:00am 28.2 33.7 26.2 89 1.4 SW 9 15 5 8 1007.5 1007.3 1.8
27/08:30am 27.1 32.2 26.2 95 0.6 SW 11 22 6 12 1007.1 1006.9 1.8
27/08:00am 26.5 32.1 26.3 99 0.1 SW 9 19 5 10 1007.1 1006.9 1.8
27/07:30am 25.3 30.2 25.3 100 0.0 SW 9 15 5 8 1006.6 1006.4 1.8
27/07:00am 24.9 30.0 24.9 100 0.0 SW 7 9 4 5 1006.4 1006.2 1.8
27/06:30am 24.8 29.8 24.8 100 0.0 SW 7 9 4 5 1006.6 1006.4 1.8
27/06:00am 24.9 31.3 24.9 100 0.0 CALM 0 6 0 3 1006.5 1006.3 1.8
27/05:30am 24.9 30.2 24.9 100 0.0 SW 6 7 3 4 1006.0 1005.8 1.8
27/05:00am 24.7 30.2 24.7 100 0.0 WSW 4 7 2 4 1005.8 1005.6 1.8
27/04:30am 24.4 30.1 24.4 100 0.0 SW 2 9 1 5 1005.8 1005.6 1.8
27/04:00am 24.4 30.1 24.4 100 0.0 SW 2 7 1 4 1005.7 1005.5 1.8
27/03:30am 24.6 30.4 24.6 100 0.0 SW 2 6 1 3 1005.7 1005.5 1.8
27/03:00am 24.5 30.6 24.5 100 0.0 CALM 0 0 0 0 1006.0 1005.8 1.8
27/02:30am 24.5 30.6 24.5 100 0.0 CALM 0 0 0 0 1006.3 1006.1 1.8
27/02:00am 24.5 29.5 24.5 100 0.0 WSW 6 9 3 5 1006.2 1006.0 1.8
27/01:30am 24.4 30.1 24.4 100 0.0 WNW 2 7 1 4 1006.8 1006.6 1.8
27/01:00am 24.5 28.9 24.5 100 0.0 SSW 9 13 5 7 1007.1 1006.9 1.8
27/12:30am 24.5 28.9 24.5 100 0.0 W 9 11 5 6 1007.3 1007.1 1.8
27/12:00am 24.7 29.6 24.7 100 0.0 WSW 7 9 4 5 1008.0 1007.8 1.8
 
Date/Time
CST
Temp
°C
App
Temp
°C
Dew
Point
Rel
Hum
%
Delta-T
°C
Wind Press
QNH
hPa
Press
MSL
hPa
Rain
since 9 am
mm
Dir
 
Spd
km/h
Gust
km/h
Spd
kts
Gust
kts
26/11:30pm 24.6 29.7 24.6 100 0.0 WSW 6 7 3 4 1008.2 1008.0 1.8
26/11:00pm 24.4 29.7 24.4 100 0.0 W 4 7 2 4 1008.1 1007.9 1.8
26/10:30pm 24.5 29.3 24.5 100 0.0 SW 7 9 4 5 1007.8 1007.6 1.8
26/10:00pm 24.6 29.7 24.6 100 0.0 S 6 9 3 5 1007.4 1007.2 1.8
26/09:30pm 24.6 28.7 24.6 100 0.0 SSE 11 17 6 9 1007.0 1006.8 1.8
26/09:00pm 24.8 29.0 24.8 100 0.0 SSE 11 15 6 8 1007.2 1007.0 1.8
26/08:30pm 24.8 29.8 24.8 100 0.0 SSE 7 11 4 6 1006.7 1006.5 1.8
26/08:00pm 24.7 30.2 24.7 100 0.0 SSW 4 7 2 4 1006.4 1006.2 1.8
26/07:30pm 24.7 28.5 24.7 100 0.0 SSE 13 19 7 10 1005.8 1005.6 1.8
26/07:00pm 24.8 29.4 24.8 100 0.0 S 9 13 5 7 1004.9 1004.7 1.8
26/06:30pm 24.5 29.3 24.5 100 0.0 W 7 11 4 6 1004.4 1004.2 1.8
26/06:00pm 24.7 29.6 24.7 100 0.0 SW 7 11 4 6 1004.5 1004.3 1.8
26/05:30pm 24.7 29.3 24.7 100 0.0 SW 9 13 5 7 1005.2 1005.0 1.8
26/05:00pm 24.7 29.6 24.7 100 0.0 WSW 7 11 4 6 1005.3 1005.1 1.8
26/04:30pm 24.3 28.2 24.3 100 0.0 WSW 11 19 6 10 1005.4 1005.2 1.8
26/04:00pm 25.4 30.4 25.4 100 0.0 SW 9 15 5 8 1005.5 1005.3 1.8
26/03:30pm 25.9 31.2 25.9 100 0.0 S 9 13 5 7 1004.9 1004.7 1.4
26/03:00pm 25.9 31.2 25.9 100 0.0 SSW 9 15 5 8 1005.3 1005.1 0.2
26/02:30pm 26.2 30.6 26.2 100 0.0 SE 15 20 8 11 1005.6 1005.4 0.2
26/02:00pm 28.0 30.7 25.0 84 2.1 E 20 30 11 16 1005.3 1005.1 0.0
26/01:30pm 29.7 33.9 27.1 86 1.9 N 19 26 10 14 1005.3 1005.1 0.0
26/01:00pm 30.4 33.9 26.3 79 2.9 N 20 26 11 14 1005.5 1005.3 0.0
26/12:30pm 32.3 36.1 26.4 71 4.2 NNW 19 24 10 13 1006.2 1006.0 0.0
26/12:00pm 33.0 37.1 23.9 59 6.4 NW 9 13 5 7 1007.0 1006.8 0.0
26/11:30am 32.1 36.6 23.9 62 5.7 WNW 7 13 4 7 1007.5 1007.3 0.0
26/11:00am 31.7 35.8 24.0 63 5.4 SW 9 11 5 6 1007.9 1007.7 0.0
26/10:30am 30.6 35.0 24.5 70 4.3 WSW 9 17 5 9 1008.0 1007.8 0.0
26/10:00am 30.4 35.5 25.0 73 3.8 SW 7 13 4 7 1008.0 1007.8 0.0
26/09:30am 29.6 34.2 24.7 75 3.4 SSW 9 17 5 9 1008.4 1008.2 0.0
26/09:00am 28.8 33.9 25.6 83 2.3 SSW 9 15 5 8 1008.7 1008.5 0.0
26/08:30am 27.7 33.2 26.1 91 1.1 SW 9 13 5 7 1008.6 1008.4 0.0
26/08:00am 27.0 32.8 26.1 95 0.6 SSW 7 15 4 8 1008.3 1008.1 0.0
26/07:30am 26.4 32.6 26.4 100 0.0 SW 6 11 3 6 1007.9 1007.7 0.0
26/07:00am 26.1 32.5 26.1 100 0.0 WSW 4 7 2 4 1007.4 1007.2 0.0
26/06:30am 26.0 32.0 26.0 100 0.0 WSW 6 9 3 5 1006.8 1006.6 0.0
26/06:00am 26.0 32.0 26.0 100 0.0 W 6 9 3 5 1006.6 1006.4 0.0
26/05:30am 26.0 32.0 26.0 100 0.0 W 6 9 3 5 1006.5 1006.3 0.0
26/05:00am 26.0 32.3 26.0 100 0.0 W 4 7 2 4 1006.3 1006.1 0.0
26/04:30am 26.1 32.1 26.1 100 0.0 W 6 7 3 4 1006.0 1005.8 0.0
26/04:00am 26.1 32.1 26.1 100 0.0 WSW 6 9 3 5 1006.0 1005.8 0.0
26/03:30am 26.1 32.5 26.1 100 0.0 WSW 4 7 2 4 1006.1 1005.9 0.0
26/03:00am 26.3 32.3 26.3 100 0.0 WSW 7 11 4 6 1006.2 1006.0 0.0
26/02:30am 26.3 32.5 26.3 100 0.0 WSW 6 9 3 5 1006.4 1006.2 0.0
26/02:00am 26.4 32.6 26.4 100 0.0 W 6 7 3 4 1006.7 1006.5 0.0
26/01:30am 26.6 33.0 26.6 100 0.0 WNW 6 9 3 5 1006.9 1006.7 0.0
26/01:00am 26.8 32.9 26.5 98 0.2 W 7 13 4 7 1007.2 1007.0 0.0
26/12:30am 26.8 33.3 26.8 100 0.0 W 6 11 3 6 1007.4 1007.2 0.0
26/12:00am 26.6 32.8 26.6 100 0.0 WNW 7 7 4 4 1007.6 1007.4 0.0
 
Date/Time
CST
Temp
°C
App
Temp
°C
Dew
Point
Rel
Hum
%
Delta-T
°C
Wind Press
QNH
hPa
Press
MSL
hPa
Rain
since 9 am
mm
Dir
 
Spd
km/h
Gust
km/h
Spd
kts
Gust
kts
25/11:30pm 26.8 33.3 26.8 100 0.0 NW 6 7 3 4 1007.9 1007.7 0.0
25/11:00pm 27.3 33.8 26.8 97 0.4 NW 6 9 3 5 1007.9 1007.7 0.0
25/10:30pm 27.2 34.1 26.3 95 0.6 WNW 2 6 1 3 1007.8 1007.6 0.0
25/10:00pm 27.9 34.2 25.9 89 1.4 WNW 4 7 2 4 1007.4 1007.2 0.0
25/09:30pm 28.3 33.9 25.7 86 1.8 WNW 7 9 4 5 1007.1 1006.9 0.0
25/09:00pm 28.7 34.4 25.9 85 2.0 W 7 11 4 6 1006.8 1006.6 0.0
25/08:30pm 28.6 36.0 27.5 94 0.8 W 4 9 2 5 1006.5 1006.3 0.0
25/08:00pm 29.1 37.3 29.1 100 0.0 WNW 6 9 3 5 1006.1 1005.9 0.0
25/07:30pm 29.3 36.5 29.1 99 0.1 NW 11 15 6 8 1005.7 1005.5 0.0
25/07:00pm 29.3 36.9 29.1 99 0.1 NNW 9 13 5 7 1005.5 1005.3 0.0
25/06:30pm 29.7 36.0 28.4 93 1.0 NNW 13 17 7 9 1005.3 1005.1 0.0
25/06:00pm 30.1 35.6 26.7 82 2.4 NNW 11 13 6 7 1004.8 1004.6 0.0
25/05:30pm 30.5 36.0 27.3 83 2.3 NNW 13 15 7 8 1004.7 1004.5 0.0
25/05:00pm 30.8 35.8 26.5 78 3.1 NNW 13 15 7 8 1004.8 1004.6 0.0
25/04:30pm 31.3 35.9 25.4 71 4.2 N 11 13 6 7 1004.7 1004.5 0.0
25/04:00pm 31.2 34.9 25.8 73 3.8 NNW 17 20 9 11 1004.7 1004.5 0.0
25/03:30pm 31.5 35.4 24.9 68 4.7 NNW 13 17 7 9 1004.9 1004.7 0.0
25/03:00pm 32.0 36.7 26.1 71 4.2 N 13 19 7 10 1005.0 1004.8 0.0
25/02:30pm 31.6 34.9 24.5 66 5.0 N 15 17 8 9 1005.6 1005.4 0.0
25/02:00pm 32.1 36.7 24.7 65 5.2 N 9 17 5 9 1006.1 1005.9 0.0
25/01:30pm 32.1 36.7 23.1 59 6.2 SSW 4 13 2 7 1007.0 1006.8 0.0
25/01:00pm 31.8 35.5 23.3 60 5.9 SSW 9 15 5 8 1007.6 1007.4 0.0
25/12:30pm 31.9 34.9 22.0 55 6.7 WSW 9 15 5 8 1008.2 1008.0 0.0
25/12:00pm 31.5 34.6 22.8 60 6.0 W 11 19 6 10 1008.7 1008.5 0.0
25/11:30am 31.5 36.0 24.6 67 4.8 WSW 9 17 5 9 1009.1 1008.9 0.0
25/11:00am 30.8 35.3 25.2 72 4.0 SW 11 19 6 10 1009.3 1009.1 0.0
25/10:30am 30.2 35.7 26.1 79 2.9 SW 9 15 5 8 1009.5 1009.3 0.0
25/10:00am 28.5 33.6 26.1 87 1.7 WSW 11 17 6 9 1010.1 1009.9 0.0
25/09:30am 27.3 32.0 25.5 90 1.3 SW 11 17 6 9 1010.4 1010.2 0.0
25/09:00am 26.7 32.6 26.7 100 0.0 SW 9 13 5 7 1010.3 1010.1 27.2
25/08:30am 25.5 31.1 25.5 100 0.0 SSW 6 9 3 5 1010.1 1009.9 27.2
25/08:00am 25.0 30.1 25.0 100 0.0 S 7 11 4 6 1009.6 1009.4 27.2
25/07:30am 24.8 30.4 24.8 100 0.0 SW 4 7 2 4 1009.3 1009.1 27.2
25/07:00am 24.6 29.5 24.6 100 0.0 SSW 7 9 4 5 1008.9 1008.7 26.6
25/06:30am 24.6 29.1 24.6 100 0.0 SSE 9 13 5 7 1008.8 1008.6 26.4
25/06:00am 24.5 29.3 24.5 100 0.0 S 7 9 4 5 1008.4 1008.2 26.4
25/05:30am 24.5 28.9 24.5 100 0.0 S 9 11 5 6 1008.1 1007.9 26.4
25/05:00am 24.3 28.6 24.3 100 0.0 S 9 13 5 7 1008.1 1007.9 26.4
25/04:30am 24.1 28.7 24.1 100 0.0 S 7 11 4 6 1007.7 1007.5 26.4
25/04:00am 24.1 28.7 24.1 100 0.0 S 7 11 4 6 1007.5 1007.3 26.4
25/03:30am 24.1 28.7 24.1 100 0.0 S 7 11 4 6 1007.1 1006.9 26.4
25/03:00am 24.1 28.7 24.1 100 0.0 S 7 9 4 5 1007.4 1007.2 26.4
25/02:30am 24.1 28.9 24.1 100 0.0 SSW 6 7 3 4 1007.7 1007.5 26.4
25/02:00am 24.1 28.9 24.1 100 0.0 SW 6 7 3 4 1008.1 1007.9 26.4
25/01:30am 24.1 28.9 24.1 100 0.0 SW 6 7 3 4 1008.5 1008.3 26.4
25/01:00am 24.1 28.9 24.1 100 0.0 WSW 6 11 3 6 1008.9 1008.7 26.4
25/12:30am 24.1 28.7 24.1 100 0.0 WSW 7 13 4 7 1009.4 1009.2 26.4
25/12:00am 24.3 29.0 24.3 100 0.0 WSW 7 13 4 7 1009.4 1009.2 26.4
 
Date/Time
CST
Temp
°C
App
Temp
°C
Dew
Point
Rel
Hum
%
Delta-T
°C
Wind Press
QNH
hPa
Press
MSL
hPa
Rain
since 9 am
mm
Dir
 
Spd
km/h
Gust
km/h
Spd
kts
Gust
kts
24/11:30pm 24.4 29.3 24.4 100 0.0 WSW 6 7 3 4 1009.3 1009.1 26.4
24/11:00pm 24.3 29.0 24.3 100 0.0 SW 7 9 4 5 1008.6 1008.4 26.4
24/10:30pm 24.2 28.8 24.2 100 0.0 SSW 7 13 4 7 1008.4 1008.2 26.4
24/10:00pm 24.0 28.1 24.0 100 0.0 SSW 9 17 5 9 1008.5 1008.3 26.4
24/09:30pm 23.7 26.9 23.7 100 0.0 SSW 13 19 7 10 1009.0 1008.8 26.4
24/09:00pm 23.5 27.3 23.5 100 0.0 SSW 9 15 5 8 1009.6 1009.4 26.2
24/08:30pm 23.3 27.4 23.3 100 0.0 SW 7 9 4 5 1009.4 1009.2 26.2
24/08:00pm 23.3 27.0 23.3 100 0.0 WSW 9 17 5 9 1009.7 1009.5 26.2
24/07:30pm 23.1 27.3 23.1 100 0.0 WNW 6 9 3 5 1009.7 1009.5 26.2
24/07:02pm 22.3 25.5 22.3 100 0.0 W 9 13 5 7 1009.0 1008.8 26.2
24/07:00pm 22.2 25.3 22.2 100 0.0 W 9 13 5 7 1009.0 1008.8 26.0
24/06:30pm 22.9 21.8 22.9 100 0.0 SE 33 54 18 29 1009.8 1009.6 20.6
24/06:29pm 23.0 22.0 23.0 100 0.0 SE 33 54 18 29 1009.9 1009.7 19.4
24/06:24pm 23.4 23.2 23.4 100 0.0 SE 30 54 16 29 1009.8 1009.6 12.4
24/06:21pm 24.2 26.4 24.2 100 0.0 SSE 20 43 11 23 1009.8 1009.6 7.8
24/06:19pm 24.5 27.8 24.5 100 0.0 S 15 43 8 23 1009.7 1009.5 5.8
24/06:15pm 25.2 31.0 25.2 100 0.0 WSW 4 19 2 10 1009.2 1009.0 5.4
24/06:00pm 25.1 30.9 25.1 100 0.0 W 4 9 2 5 1008.5 1008.3 5.0
24/05:30pm 25.4 30.0 25.4 100 0.0 S 11 17 6 9 1007.1 1006.9 2.2
24/05:29pm 25.6 30.3 25.6 100 0.0 S 11 13 6 7 1007.1 1006.9 2.0
24/05:00pm 25.4 30.0 25.4 100 0.0 WNW 11 17 6 9 1006.8 1006.6 1.0
24/04:30pm 25.9 31.6 25.9 100 0.0 S 7 11 4 6 1007.2 1007.0 0.8
24/04:00pm 25.6 30.0 25.6 100 0.0 NE 13 24 7 13 1007.4 1007.2 0.2
24/03:36pm 26.0 30.4 25.0 94 0.7 ENE 11 17 6 9 1006.1 1005.9 0.0
24/03:30pm 26.1 29.2 24.1 89 1.4 ENE 15 22 8 12 1006.5 1006.3 0.0
24/03:17pm 26.9 31.3 26.2 96 0.5 ENE 15 26 8 14 1006.8 1006.6 0.0
24/03:00pm 27.9 33.1 27.9 100 0.0 ENE 17 26 9 14 1007.0 1006.8 0.0
24/02:30pm 28.7 35.6 28.7 100 0.0 NNE 11 17 6 9 1007.1 1006.9 0.0
24/02:00pm 29.5 34.2 26.1 82 2.4 N 13 17 7 9 1007.0 1006.8 0.0
24/01:30pm 32.1 37.1 25.4 67 4.8 W 9 13 5 7 1007.4 1007.2 0.0
24/01:00pm 32.0 36.4 25.1 67 4.9 SW 11 19 6 10 1008.0 1007.8 0.0
24/12:30pm 32.2 36.6 25.0 65 5.1 WSW 11 20 6 11 1008.8 1008.6 0.0
24/12:00pm 32.1 36.7 25.9 70 4.4 WSW 13 20 7 11 1009.0 1008.8 0.0
24/11:30am 31.4 35.6 25.3 70 4.3 SW 13 22 7 12 1009.4 1009.2 0.0
24/11:00am 31.4 36.9 26.2 74 3.7 WSW 9 15 5 8 1009.8 1009.6 0.0
24/10:30am 30.1 34.6 25.2 75 3.5 W 11 19 6 10 1010.2 1010.0 0.0

Other Formats:

Comma delimited format used in spreadsheet applications
http://www.bom.gov.au/fwo/IDD60801/IDD60801.95142.axf

JavaScript Object Notation format (JSON) in row-major order
http://www.bom.gov.au/fwo/IDD60801/IDD60801.95142.json